Time;durP1;ratioP1;P1;durP2;ratioP2;P2;SDS_P1;SDS_P2;PMS_P1;PMS_P2;Temp;Humidity;BMP_temperature;BMP_pressure;BME280_temperature;BME280_humidity;BME280_pressure;Samples;Min_cycle;Max_cycle;Signal;HPM_P1;HPM_P2
2023/03/15 00:00:14;;;;;;;15.20;3.97;;;;;;;2.67;100.00;99921.72;5052943;28;20097;-91
2023/03/15 00:02:56;;;;;;;15.15;4.35;;;;;;;3.10;100.00;100006.16;5052678;28;20042;-91
2023/03/15 00:05:25;;;;;;;10.50;3.50;;;;;;;3.31;100.00;100051.00;5042473;28;20562;-91
2023/03/15 00:07:54;;;;;;;9.13;3.13;;;;;;;3.00;100.00;100008.97;5022043;28;20557;-92
2023/03/15 00:10:22;;;;;;;11.13;3.40;;;;;;;3.23;100.00;100061.66;5021209;28;20099;-90
2023/03/15 00:12:59;;;;;;;12.15;2.80;;;;;;;3.22;100.00;100069.53;4997342;28;20046;-92
2023/03/15 00:15:28;;;;;;;8.38;3.40;;;;;;;3.19;100.00;100070.47;5019721;28;20072;-92
2023/03/15 00:18:12;;;;;;;16.90;3.28;;;;;;;3.14;100.00;100070.59;5008613;28;20045;-91
2023/03/15 00:20:40;;;;;;;15.18;3.30;;;;;;;3.00;100.00;100063.91;5029259;28;20039;-92
2023/03/15 00:23:10;;;;;;;11.40;2.47;;;;;;;2.84;100.00;100050.28;5039383;28;20068;-93
2023/03/15 00:25:46;;;;;;;13.23;2.47;;;;;;;3.04;100.00;100086.50;5016562;28;20033;-93
2023/03/15 00:28:14;;;;;;;11.13;2.30;;;;;;;2.96;100.00;100075.34;5018417;28;20604;-92
2023/03/15 00:31:08;;;;;;;12.75;2.67;;;;;;;2.77;100.00;100060.03;5039125;28;20437;-93
2023/03/15 00:33:48;;;;;;;14.18;2.50;;;;;;;2.87;100.00;100086.84;5025573;28;20076;-91
2023/03/15 00:36:15;;;;;;;9.73;2.60;;;;;;;2.90;100.00;100101.63;5021952;28;20068;-92
2023/03/15 00:38:59;;;;;;;10.02;2.38;;;;;;;2.87;100.00;100110.38;5030604;28;20048;-92
2023/03/15 00:41:27;;;;;;;13.55;2.58;;;;;;;2.87;100.00;100109.53;5057168;28;20063;-92
2023/03/15 00:44:03;;;;;;;8.73;2.38;;;;;;;2.83;100.00;100106.97;5037361;28;20039;-92
2023/03/15 00:46:30;;;;;;;12.25;2.25;;;;;;;2.51;100.00;100071.91;5033319;28;20057;-92
2023/03/15 00:49:01;;;;;;;8.75;2.00;;;;;;;2.73;100.00;100105.44;5042447;28;20050;-91
2023/03/15 00:51:32;;;;;;;10.10;1.73;;;;;;;2.33;100.00;100060.06;5052382;28;20080;-92
2023/03/15 00:54:24;;;;;;;12.77;2.35;;;;;;;2.50;100.00;100098.94;5042389;28;20042;-90
2023/03/15 00:56:52;;;;;;;12.40;2.22;;;;;;;2.13;100.00;100043.88;5037538;28;20072;-91
2023/03/15 00:59:24;;;;;;;;;;;;;;;2.48;100.00;100114.66;5043714;28;20026;-90
2023/03/15 01:01:52;;;;;;;19.10;2.20;;;;;;;2.52;100.00;100129.34;5050426;28;19910;-91
2023/03/15 01:04:45;;;;;;;14.50;2.58;;;;;;;1.85;100.00;100026.09;5056180;28;20068;-89
2023/03/15 01:07:21;;;;;;;10.68;2.00;;;;;;;2.46;100.00;100139.94;5055225;28;20082;-86
2023/03/15 01:09:48;;;;;;;5.32;1.63;;;;;;;2.39;100.00;100141.78;5040142;28;20041;-90
2023/03/15 01:12:16;;;;;;;12.05;2.10;;;;;;;2.31;100.00;100130.63;5055863;28;20073;-89
2023/03/15 01:14:44;;;;;;;8.35;2.08;;;;;;;2.32;100.00;100144.56;5021614;28;20285;-93
2023/03/15 01:17:18;;;;;;;12.20;2.35;;;;;;;2.28;100.00;100137.66;4981803;28;20052;-92
2023/03/15 01:19:50;;;;;;;14.27;2.30;;;;;;;2.05;100.00;100091.03;5011991;28;20070;-90
2023/03/15 01:22:21;;;;;;;9.50;2.30;;;;;;;2.38;100.00;100149.66;5051429;28;20040;-89
2023/03/15 01:24:53;;;;;;;10.35;2.25;;;;;;;2.40;100.00;100143.53;5023865;28;20041;-89
2023/03/15 01:27:26;;;;;;;;;;;;;;;2.41;100.00;100147.84;5044092;28;20037;-93
2023/03/15 01:29:57;;;;;;;10.18;1.90;;;;;;;2.44;100.00;100155.66;5041066;28;19929;-90
2023/03/15 01:32:53;;;;;;;7.70;2.05;;;;;;;2.42;100.00;100143.50;5061441;28;20030;-91
2023/03/15 01:35:39;;;;;;;8.60;1.92;;;;;;;2.43;100.00;100142.59;5030099;28;20041;-93
2023/03/15 01:38:24;;;;;;;9.95;2.03;;;;;;;2.13;100.00;100096.13;5050654;28;20033;-92
2023/03/15 01:44:04;;;;;;;14.80;2.30;;;;;;;2.30;100.00;100156.78;5024525;28;20042;-90
2023/03/15 01:46:41;;;;;;;10.63;2.20;;;;;;;2.19;100.00;100159.59;5022896;28;20026;-88
2023/03/15 01:49:24;;;;;;;10.15;2.00;;;;;;;2.20;100.00;100156.09;5021120;28;20048;-89
2023/03/15 01:52:12;;;;;;;10.90;2.28;;;;;;;2.16;100.00;100170.09;5027193;28;20045;-92
2023/03/15 01:55:00;;;;;;;10.13;2.30;;;;;;;2.05;100.00;100165.00;5022178;28;20062;-89
2023/03/15 01:57:40;;;;;;;8.18;2.13;;;;;;;2.17;100.00;100181.41;5025266;28;20065;-90
2023/03/15 02:00:15;;;;;;;11.80;2.28;;;;;;;1.49;100.00;100069.31;5013741;28;20407;-93
2023/03/15 02:03:03;;;;;;;9.63;2.08;;;;;;;1.42;100.00;100060.72;4999811;28;20034;-93
2023/03/15 02:05:44;;;;;;;13.13;2.50;;;;;;;2.09;100.00;100178.88;5007171;28;20063;-91
2023/03/15 02:08:20;;;;;;;9.57;2.25;;;;;;;2.11;100.00;100190.19;4996985;28;20301;-91
2023/03/15 02:10:57;;;;;;;13.13;2.72;;;;;;;2.10;100.00;100186.69;5008851;28;20124;-92
2023/03/15 02:13:29;;;;;;;11.27;2.20;;;;;;;2.00;100.00;100173.81;5005282;28;20057;-93
2023/03/15 02:16:24;;;;;;;10.32;2.30;;;;;;;1.49;100.00;100079.75;5006763;28;20124;-92
2023/03/15 02:19:33;;;;;;;14.95;2.63;;;;;;;1.53;100.00;100081.44;5016764;28;20046;-92
2023/03/15 02:22:26;;;;;;;9.23;1.85;;;;;;;2.19;100.00;100183.09;5013265;28;20045;-93
2023/03/15 02:25:11;;;;;;;5.13;1.65;;;;;;;2.02;100.00;100156.38;5021551;28;20045;-91
2023/03/15 02:27:41;;;;;;;14.20;2.17;;;;;;;2.06;100.00;100150.19;4986828;28;20049;-94
2023/03/15 02:30:12;;;;;;;5.75;2.05;;;;;;;2.28;100.00;100182.06;5003053;28;20101;-91
2023/03/15 02:33:00;;;;;;;12.98;2.25;;;;;;;2.08;100.00;100158.88;5006088;28;20073;-93
2023/03/15 02:35:31;;;;;;;8.15;1.58;;;;;;;1.66;100.00;100103.84;5001871;28;20042;-92
2023/03/15 02:37:58;;;;;;;9.77;2.15;;;;;;;2.04;100.00;100175.50;5013928;28;20041;-93
2023/03/15 02:40:28;;;;;;;11.90;1.90;;;;;;;2.20;100.00;100190.06;5022544;28;20147;-92
2023/03/15 02:43:03;;;;;;;11.65;1.95;;;;;;;1.94;100.00;100132.13;5035401;28;20512;-92
2023/03/15 02:45:40;;;;;;;9.32;2.00;;;;;;;2.27;100.00;100183.81;5025018;28;20438;-93
2023/03/15 02:48:12;;;;;;;10.15;1.95;;;;;;;1.53;100.00;100081.44;5039858;28;20045;-92
2023/03/15 02:50:46;;;;;;;8.20;1.95;;;;;;;1.93;100.00;100174.78;5056563;28;20101;-92
2023/03/15 02:53:34;;;;;;;12.02;2.20;;;;;;;1.62;100.00;100141.31;5037091;28;20538;-89
2023/03/15 02:56:13;;;;;;;9.30;1.75;;;;;;;1.69;100.00;100162.97;5025772;28;20045;-91
2023/03/15 02:58:44;;;;;;;5.45;1.83;;;;;;;1.48;100.00;100126.75;5025151;28;20101;-92
2023/03/15 03:01:27;;;;;;;13.02;2.17;;;;;;;1.71;100.00;100156.88;5038732;28;20176;-92
2023/03/15 03:03:57;;;;;;;7.68;2.05;;;;;;;2.02;100.00;100193.81;5038150;28;20049;-93
2023/03/15 03:06:34;;;;;;;10.02;1.90;;;;;;;1.98;100.00;100175.59;5028235;28;20419;-93
2023/03/15 03:09:16;;;;;;;6.43;1.88;;;;;;;2.20;100.00;100210.94;5047386;28;20066;-92
2023/03/15 03:11:46;;;;;;;8.23;1.52;;;;;;;1.89;100.00;100160.09;5033721;28;20048;-90
2023/03/15 03:14:17;;;;;;;7.30;1.60;;;;;;;2.00;100.00;100181.66;5056561;28;20061;-90
2023/03/15 03:16:47;;;;;;;4.70;1.77;;;;;;;1.63;100.00;100114.34;5041067;28;20290;-90
2023/03/15 03:19:14;;;;;;;8.73;1.88;;;;;;;2.20;100.00;100210.94;5051659;28;20049;-91
2023/03/15 03:21:44;;;;;;;7.30;1.65;;;;;;;1.85;100.00;100138.38;5031991;28;20037;-92
2023/03/15 03:24:25;;;;;;;12.25;3.03;;;;;;;2.35;100.00;100239.44;5013999;28;20064;-91
2023/03/15 03:26:57;;;;;;;8.27;1.77;;;;;;;2.01;100.00;100206.88;5047371;28;20052;-90
2023/03/15 03:29:30;;;;;;;6.55;2.05;;;;;;;2.02;100.00;100211.22;5000801;28;20053;-90
2023/03/15 03:32:00;;;;;;;8.98;2.05;;;;;;;2.22;100.00;100250.09;5041769;28;20057;-89
2023/03/15 03:34:34;;;;;;;11.38;2.33;;;;;;;1.57;100.00;100145.75;5015960;28;20041;-90
2023/03/15 03:37:10;;;;;;;4.97;1.65;;;;;;;1.79;100.00;100201.09;5038601;28;20452;-89
2023/03/15 03:39:46;;;;;;;3.95;1.73;;;;;;;1.99;100.00;100242.59;5041290;28;20033;-90
2023/03/15 03:42:21;;;;;;;7.25;2.42;;;;;;;1.57;100.00;100157.94;4997674;28;20466;-91
2023/03/15 03:44:56;;;;;;;7.68;2.10;;;;;;;1.81;100.00;100204.56;4998731;28;20057;-92
2023/03/15 03:47:36;;;;;;;8.23;2.10;;;;;;;1.74;100.00;100203.78;4989339;28;20041;-90
2023/03/15 03:50:17;;;;;;;9.02;2.08;;;;;;;1.67;100.00;100225.66;5002949;28;20046;-91
2023/03/15 03:53:02;;;;;;;11.95;2.20;;;;;;;1.58;100.00;100232.72;5000440;28;20061;-92
2023/03/15 03:55:32;;;;;;;9.80;2.47;;;;;;;1.88;100.00;100274.09;5000499;28;20030;-92
2023/03/15 03:58:08;;;;;;;9.20;2.28;;;;;;;1.48;100.00;100189.38;4988944;28;20042;-90
2023/03/15 04:00:43;;;;;;;9.05;2.88;;;;;;;2.10;100.00;100279.88;4988934;28;20057;-92
2023/03/15 04:03:14;;;;;;;8.57;2.10;;;;;;;2.12;100.00;100283.31;5001304;28;20610;-91
2023/03/15 04:05:45;;;;;;;5.90;2.25;;;;;;;2.13;100.00;100286.81;5003207;28;20176;-90
2023/03/15 04:08:12;;;;;;;8.52;2.10;;;;;;;2.07;100.00;100286.00;5014473;28;20109;-91
2023/03/15 04:10:39;;;;;;;10.63;2.15;;;;;;;2.14;100.00;100285.91;4999776;28;20066;-87
2023/03/15 04:13:08;;;;;;;9.95;2.55;;;;;;;1.74;100.00;100219.44;5001574;28;20097;-92
2023/03/15 04:15:37;;;;;;;9.38;3.22;;;;;;;2.28;100.00;100300.50;5019539;28;20066;-90
2023/03/15 04:18:21;;;;;;;8.18;1.95;;;;;;;1.98;100.00;100253.94;5003539;28;20116;-90
2023/03/15 04:20:56;;;;;;;9.63;2.40;;;;;;;1.70;100.00;100202.13;5003280;28;20073;-89
2023/03/15 04:23:25;;;;;;;7.72;1.95;;;;;;;1.97;100.00;100242.63;5011243;28;20050;-89
2023/03/15 04:26:10;;;;;;;11.70;3.10;;;;;;;2.00;100.00;100262.63;5028644;28;20053;-89
2023/03/15 04:28:41;;;;;;;9.00;2.10;;;;;;;2.13;100.00;100295.50;5019272;28;20084;-90
2023/03/15 04:31:13;;;;;;;8.60;2.05;;;;;;;1.95;100.00;100291.41;5031649;28;20112;-88
2023/03/15 04:33:41;;;;;;;7.63;2.13;;;;;;;1.98;100.00;100311.38;5030762;28;20038;-91
2023/03/15 04:36:17;;;;;;;10.15;2.17;;;;;;;1.74;100.00;100255.13;5027555;28;20041;-89
2023/03/15 04:38:50;;;;;;;6.47;2.20;;;;;;;1.46;100.00;100209.41;5019979;28;20049;-90
2023/03/15 04:41:20;;;;;;;8.07;2.22;;;;;;;2.06;100.00;100306.91;5017371;28;20057;-92
2023/03/15 04:43:59;;;;;;;8.68;2.00;;;;;;;2.13;100.00;100305.94;5036996;28;20050;-90
2023/03/15 04:46:39;;;;;;;9.85;2.63;;;;;;;2.16;100.00;100305.91;5044812;28;20034;-91
2023/03/15 04:49:15;;;;;;;9.38;1.73;;;;;;;1.79;100.00;100242.00;5016174;28;20103;-90
2023/03/15 04:51:57;;;;;;;9.02;1.95;;;;;;;1.86;100.00;100254.13;5034647;28;20038;-91
2023/03/15 04:54:35;;;;;;;6.15;1.90;;;;;;;2.26;100.00;100304.88;5049575;28;20053;-88
2023/03/15 04:57:04;;;;;;;6.35;1.88;;;;;;;1.62;100.00;100185.69;5053326;28;20057;-90
2023/03/15 04:59:39;;;;;;;6.80;2.00;;;;;;;1.95;100.00;100247.00;5049739;28;20045;-91
2023/03/15 05:02:09;;;;;;;9.77;2.60;;;;;;;2.19;100.00;100289.34;5042426;28;20048;-92
2023/03/15 05:04:50;;;;;;;7.13;1.80;;;;;;;2.10;100.00;100282.47;5025031;28;20044;-90
2023/03/15 05:07:34;;;;;;;5.88;1.90;;;;;;;1.84;100.00;100241.09;5004293;28;20056;-91
2023/03/15 05:10:14;;;;;;;7.45;2.05;;;;;;;1.69;100.00;100218.66;5031800;28;20056;-91
2023/03/15 05:13:09;;;;;;;7.47;2.50;;;;;;;2.04;100.00;100288.69;5024457;28;20104;-88
2023/03/15 05:16:20;;;;;;;8.07;2.35;;;;;;;2.15;100.00;100309.41;5041761;28;20051;-90
2023/03/15 05:18:48;;;;;;;8.48;2.47;;;;;;;1.55;100.00;100214.50;5039084;28;20052;-90
2023/03/15 05:21:16;;;;;;;7.03;2.00;;;;;;;2.13;100.00;100319.00;5020681;28;20071;-89
2023/03/15 05:23:46;;;;;;;9.02;2.40;;;;;;;2.17;100.00;100323.31;5018162;28;20080;-90
2023/03/15 05:26:16;;;;;;;9.80;2.17;;;;;;;1.89;100.00;100264.53;5034355;28;20049;-90
2023/03/15 05:28:48;;;;;;;8.68;2.20;;;;;;;2.24;100.00;100314.50;5004523;28;20046;-90
2023/03/15 05:31:19;;;;;;;6.93;1.70;;;;;;;1.83;100.00;100260.25;5035673;28;20048;-90
2023/03/15 05:33:53;;;;;;;9.13;1.90;;;;;;;2.05;100.00;100303.44;5030311;28;20053;-90
2023/03/15 05:36:21;;;;;;;5.85;2.30;;;;;;;2.09;100.00;100322.53;5034443;28;20043;-87
2023/03/15 05:38:48;;;;;;;9.45;2.50;;;;;;;2.13;100.00;100332.06;5019794;28;20045;-91
2023/03/15 05:41:19;;;;;;;9.10;2.47;;;;;;;1.94;100.00;100299.25;5022636;28;20486;-90
2023/03/15 05:43:47;;;;;;;5.82;2.17;;;;;;;1.82;100.00;100297.66;5038986;28;20073;-90
2023/03/15 05:46:14;;;;;;;7.10;1.90;;;;;;;1.74;100.00;100313.41;5004318;28;20173;-90
2023/03/15 05:48:41;;;;;;;12.60;2.80;;;;;;;1.71;100.00;100317.84;5019611;28;20045;-89
2023/03/15 05:51:13;;;;;;;10.50;2.40;;;;;;;1.68;100.00;100336.13;5027485;28;20065;-91
2023/03/15 05:53:43;;;;;;;7.20;2.40;;;;;;;1.75;100.00;100356.06;5045791;28;20068;-89
2023/03/15 05:56:31;;;;;;;7.03;2.25;;;;;;;1.63;100.00;100350.97;5043553;28;20041;-92
2023/03/15 05:59:01;;;;;;;8.13;3.20;;;;;;;1.55;100.00;100340.66;5049754;28;20097;-91
2023/03/15 06:01:36;;;;;;;13.35;2.97;;;;;;;1.44;100.00;100313.78;5055389;28;20509;-92
2023/03/15 06:04:18;;;;;;;11.25;3.13;;;;;;;1.82;100.00;100351.63;5016256;28;20041;-95
2023/03/15 06:06:59;;;;;;;9.50;2.70;;;;;;;1.40;100.00;100263.41;5035260;28;20076;-94
2023/03/15 06:09:35;;;;;;;10.50;3.00;;;;;;;1.89;100.00;100350.69;5039931;28;20037;-93
2023/03/15 06:12:36;;;;;;;8.13;3.42;;;;;;;1.57;100.00;100310.19;4607145;27;15074484;-95
2023/03/15 06:15:19;;;;;;;9.65;3.35;;;;;;;1.52;100.00;100330.22;5122571;28;20039;-89
2023/03/15 06:17:51;;;;;;;9.30;3.05;;;;;;;1.58;100.00;100358.00;5128032;28;20087;-90
2023/03/15 06:20:33;;;;;;;11.02;3.08;;;;;;;1.42;100.00;100367.72;5119841;28;20032;-92
2023/03/15 06:23:20;;;;;;;13.10;4.43;;;;;;;1.28;100.00;100367.88;5099563;28;20040;-92
2023/03/15 06:26:01;;;;;;;12.30;3.75;;;;;;;1.19;100.00;100374.94;5099199;28;20040;-92
2023/03/15 06:29:16;;;;;;;15.80;4.88;;;;;;;1.32;100.00;100380.00;5093467;28;20040;-91
2023/03/15 06:32:04;;;;;;;10.55;4.97;;;;;;;1.37;100.00;100379.97;5121338;28;20038;-92
2023/03/15 06:34:41;;;;;;;9.13;4.57;;;;;;;1.15;100.00;100363.66;5124951;28;20052;-93
2023/03/15 06:37:47;;;;;;;16.77;5.97;;;;;;;1.27;100.00;100357.44;5117164;28;20047;-91
2023/03/15 06:41:21;;;;;;;13.20;5.28;;;;;;;1.39;100.00;100357.34;5076897;28;20341;-90
2023/03/15 06:44:02;;;;;;;14.63;4.68;;;;;;;1.20;100.00;100335.78;5104502;28;20044;-89
2023/03/15 06:46:32;;;;;;;12.05;5.13;;;;;;;1.45;100.00;100395.53;5118792;28;20055;-90
2023/03/15 06:49:15;;;;;;;10.63;4.70;;;;;;;1.09;100.00;100326.34;5115578;28;20043;-90
2023/03/15 06:52:02;;;;;;;12.07;4.97;;;;;;;1.10;100.00;100341.13;5103560;28;20050;-91
2023/03/15 06:54:42;;;;;;;18.85;5.85;;;;;;;1.23;100.00;100387.06;5117814;28;20064;-90
2023/03/15 07:08:05;;;;;;;16.60;5.28;;;;;;;1.65;100.00;100410.13;5611089;22;16597238;-90
2023/03/15 07:10:53;;;;;;;14.02;5.93;;;;;;;1.71;100.00;100415.28;6182231;23;20036;-90
2023/03/15 07:13:52;;;;;;;18.63;6.80;;;;;;;1.39;100.00;100354.75;6207367;23;20021;-92
2023/03/15 07:16:34;;;;;;;14.13;6.90;;;;;;;1.40;100.00;100356.47;6213258;23;20068;-92
2023/03/15 07:19:18;;;;;;;19.50;6.65;;;;;;;1.73;100.00;100426.56;6215047;23;20053;-91
2023/03/15 07:21:59;;;;;;;13.93;7.45;;;;;;;1.47;100.00;100365.06;6194943;23;20008;-89
2023/03/15 07:24:58;;;;;;;14.60;7.53;;;;;;;1.51;100.00;100380.69;6218958;23;20320;-90
2023/03/15 07:28:32;;;;;;;20.70;6.90;;;;;;;1.88;100.00;100437.75;6201831;23;20004;-91
2023/03/15 07:31:31;;;;;;;14.90;6.97;;;;;;;1.84;100.00;100412.53;6217347;23;20024;-90
2023/03/15 07:34:13;;;;;;;18.63;7.47;;;;;;;1.61;100.00;100415.38;6217237;23;20017;-92
2023/03/15 07:36:56;;;;;;;23.95;8.13;;;;;;;1.45;100.00;100393.78;6216910;23;20025;-90
2023/03/15 07:39:43;;;;;;;17.95;7.80;;;;;;;1.52;100.00;100408.53;6215663;23;20028;-91
2023/03/15 07:43:18;;;;;;;17.58;8.23;;;;;;;1.62;100.00;100445.81;6166746;23;20014;-90
2023/03/15 07:46:18;;;;;;;19.95;7.75;;;;;;;1.59;100.00;100444.09;6173400;23;20044;-91
2023/03/15 07:49:41;;;;;;;18.58;7.07;;;;;;;1.66;100.00;100439.69;6135881;23;20049;-89
2023/03/15 07:53:52;;;;;;;18.60;7.68;;;;;;;1.95;100.00;100447.22;6182999;23;20074;-89
2023/03/15 07:57:17;;;;;;;19.60;7.72;;;;;;;2.23;100.00;100447.75;6170338;23;20018;-89
2023/03/15 08:00:35;;;;;;;18.08;7.20;;;;;;;2.30;100.00;100445.06;6080899;23;20078;-91
2023/03/15 08:07:42;;;;;;;15.75;7.70;;;;;;;2.71;100.00;100468.03;6022416;23;20031;-90
2023/03/15 08:10:26;;;;;;;19.70;8.20;;;;;;;2.15;100.00;100418.25;6073182;23;20019;-90
2023/03/15 08:13:52;;;;;;;18.63;8.35;;;;;;;2.19;100.00;100462.63;6086896;23;20117;-89
2023/03/15 08:16:41;;;;;;;22.70;8.70;;;;;;;2.20;100.00;100464.34;6076105;23;20018;-90
2023/03/15 08:20:04;;;;;;;17.33;8.30;;;;;;;2.28;100.00;100469.47;6100333;23;20515;-90
2023/03/15 08:23:15;;;;;;;16.13;8.05;;;;;;;2.41;100.00;100486.72;6154934;22;20023;-91
2023/03/15 08:26:26;;;;;;;17.30;7.28;;;;;;;2.56;100.00;100472.59;6160054;23;20023;-90
2023/03/15 08:29:36;;;;;;;18.33;7.63;;;;;;;2.80;100.00;100493.19;6190929;23;20023;-91
2023/03/15 08:32:20;;;;;;;16.30;7.93;;;;;;;2.85;100.00;100483.53;6200673;23;20079;-89
2023/03/15 08:34:52;;;;;;;16.23;7.13;;;;;;;2.90;100.00;100476.47;6195819;23;20066;-90
2023/03/15 08:38:23;;;;;;;16.67;7.68;;;;;;;2.99;100.00;100497.25;6109087;23;20085;-88
2023/03/15 08:41:30;;;;;;;22.25;8.45;;;;;;;2.85;100.00;100500.97;6106319;23;20018;-88
2023/03/15 08:44:45;;;;;;;17.38;7.40;;;;;;;2.81;100.00;100514.09;5123044;27;24520;-90
2023/03/15 08:47:34;;;;;;;19.45;7.53;;;;;;;2.89;100.00;100497.41;4978021;28;20500;-91
2023/03/15 08:50:21;;;;;;;16.30;6.43;;;;;;;3.03;100.00;100514.66;4960077;28;20110;-90
2023/03/15 08:53:25;;;;;;;17.35;5.55;;;;;;;2.86;100.00;100487.00;4961995;28;20114;-89
2023/03/15 08:56:12;;;;;;;16.67;6.00;;;;;;;2.92;100.00;100497.38;4954624;28;20066;-90
2023/03/15 08:58:57;;;;;;;16.65;6.65;;;;;;;3.10;100.00;100528.53;4969317;28;20046;-91
2023/03/15 09:01:39;;;;;;;16.55;6.03;;;;;;;2.90;100.00;100501.78;4960684;28;20051;-91
2023/03/15 09:04:54;;;;;;;17.08;6.07;;;;;;;3.13;100.00;100531.09;4975346;28;20411;-90
2023/03/15 09:07:28;;;;;;;14.82;5.75;;;;;;;3.26;100.00;100545.72;4973953;28;20075;-90
2023/03/15 09:10:03;;;;;;;13.60;5.32;;;;;;;3.23;100.00;100542.28;4960139;28;20138;-91
2023/03/15 09:12:47;;;;;;;17.45;5.93;;;;;;;3.39;100.00;100551.63;4958028;28;20051;-87
2023/03/15 09:15:22;;;;;;;11.98;6.15;;;;;;;3.58;100.00;100550.47;4971026;28;20047;-90
2023/03/15 09:17:53;;;;;;;16.88;5.03;;;;;;;3.42;100.00;100521.06;4955898;28;20047;-90
2023/03/15 09:20:33;;;;;;;15.18;5.47;;;;;;;3.67;100.00;100555.53;4932429;28;20325;-89
2023/03/15 09:23:42;;;;;;;16.33;4.93;;;;;;;3.45;100.00;100492.22;4972270;28;20063;-91
2023/03/15 09:26:12;;;;;;;15.35;5.57;;;;;;;3.75;100.00;100537.97;5077503;28;20074;-91
2023/03/15 09:28:39;;;;;;;12.80;4.85;;;;;;;3.77;100.00;100543.19;5070826;28;20063;-93
2023/03/15 09:31:12;;;;;;;11.00;5.10;;;;;;;3.70;100.00;100526.69;5070866;28;20054;-90
2023/03/15 09:33:48;;;;;;;;;;;;;;;4.31;100.00;100562.28;5062284;28;20044;-90
2023/03/15 09:36:41;;;;;;;12.63;5.28;;;;;;;4.37;100.00;100475.66;5072990;28;19994;-94
2023/03/15 09:39:15;;;;;;;10.30;4.30;;;;;;;5.40;100.00;100558.22;5066338;28;20045;-90
2023/03/15 09:42:21;;;;;;;8.93;4.22;;;;;;;5.84;100.00;100557.16;5015804;28;20069;-90
2023/03/15 09:45:16;;;;;;;8.65;4.18;;;;;;;6.05;100.00;100568.94;5019864;28;20114;-90
2023/03/15 09:48:09;;;;;;;6.50;3.80;;;;;;;5.85;100.00;100562.38;5014418;28;20115;-88
2023/03/15 09:51:34;;;;;;;8.05;3.75;;;;;;;5.44;100.00;100576.53;5032633;28;20054;-92
2023/03/15 09:54:11;;;;;;;10.13;5.30;;;;;;;4.66;100.00;100577.34;5011262;28;20048;-90
2023/03/15 09:57:23;;;;;;;12.73;4.97;;;;;;;4.19;100.00;100541.53;4992345;28;20046;-90
2023/03/15 10:00:16;;;;;;;5.97;4.07;;;;;;;4.05;100.00;100561.91;5006960;28;20049;-91
2023/03/15 10:02:54;;;;;;;13.00;5.20;;;;;;;4.20;100.00;100591.31;5001418;28;20628;-91
2023/03/15 10:06:05;;;;;;;6.82;4.05;;;;;;;4.17;100.00;100578.25;4991698;28;20045;-90
2023/03/15 10:09:11;;;;;;;6.68;3.58;;;;;;;4.29;100.00;100595.53;5059479;28;20064;-89
2023/03/15 10:12:27;;;;;;;7.93;4.38;;;;;;;4.30;100.00;100594.63;5042833;28;20525;-90
2023/03/15 10:15:36;;;;;;;9.80;3.40;;;;;;;4.20;100.00;100596.56;5024632;28;20056;-88
2023/03/15 10:19:06;;;;;;;5.68;3.85;;;;;;;4.23;100.00;100591.28;5063834;28;20120;-90
2023/03/15 10:21:57;;;;;;;6.90;3.65;;;;;;;4.26;100.00;100590.31;5070965;28;20064;-89
2023/03/15 10:25:13;;;;;;;7.15;3.30;;;;;;;4.15;100.00;100574.81;5047650;28;20083;-92
2023/03/15 10:27:46;;;;;;;4.90;3.22;;;;;;;4.07;100.00;100583.72;5026510;28;20060;-92
2023/03/15 10:30:33;;;;;;;5.85;3.20;;;;;;;4.18;100.00;100605.34;5052815;28;20047;-90
2023/03/15 10:33:34;;;;;;;2.83;2.50;;;;;;;4.06;100.00;100592.44;5054115;28;20103;-89
2023/03/15 10:36:24;;;;;;;2.53;2.33;;;;;;;4.00;100.00;100595.16;5077698;28;20096;-90
2023/03/15 10:39:14;;;;;;;3.13;2.60;;;;;;;4.16;100.00;100599.25;5064404;28;20041;-89
2023/03/15 10:42:38;;;;;;;2.92;2.47;;;;;;;4.46;100.00;100577.72;5065536;28;20037;-92
2023/03/15 10:45:25;;;;;;;2.90;2.30;;;;;;;4.84;100.00;100592.72;5071421;28;20052;-90
2023/03/15 10:48:34;;;;;;;2.60;2.40;;;;;;;5.17;100.00;100585.88;5067210;28;20037;-90
2023/03/15 10:51:29;;;;;;;3.28;2.58;;;;;;;5.42;100.00;100577.44;5065282;28;20032;-91
2023/03/15 10:54:22;;;;;;;3.45;2.03;;;;;;;5.54;100.00;100585.03;5064446;28;20087;-89
2023/03/15 10:57:13;;;;;;;2.88;2.22;;;;;;;5.18;100.00;100569.25;5046582;28;20049;-92
2023/03/15 11:00:05;;;;;;;2.75;2.53;;;;;;;5.17;100.00;100549.13;5057434;28;20049;-91
2023/03/15 11:02:35;;;;;;;4.68;3.30;;;;;;;5.10;100.00;100497.66;5070956;28;20028;-89
2023/03/15 11:05:11;;;;;;;1.73;1.63;;;;;;;5.25;100.00;100549.81;5060363;28;20037;-88
2023/03/15 11:07:53;;;;;;;2.40;2.20;;;;;;;5.12;100.00;100579.88;5060659;28;20079;-90
2023/03/15 11:10:36;;;;;;;3.60;2.50;;;;;;;4.75;100.00;100560.53;5050658;28;20086;-90
2023/03/15 11:13:23;;;;;;;2.20;1.83;;;;;;;4.64;100.00;100565.16;5077270;28;20044;-92
2023/03/15 11:18:29;;;;;;;1.85;1.63;;;;;;;4.84;100.00;100599.72;4981440;28;20069;-90
2023/03/15 11:21:22;;;;;;;2.05;1.52;;;;;;;4.67;100.00;100565.09;4983449;28;20038;-92
2023/03/15 11:24:06;;;;;;;;;;;;;;;4.92;100.00;100613.53;4974353;28;20039;-91
2023/03/15 11:26:39;;;;;;;2.10;1.67;;;;;;;4.98;100.00;100588.94;4961257;28;19910;-90
2023/03/15 11:29:21;;;;;;;1.45;1.35;;;;;;;5.28;100.00;100611.91;4967491;28;20047;-90
2023/03/15 11:31:53;;;;;;;1.77;1.40;;;;;;;5.18;99.74;100608.63;4970281;28;20049;-90
2023/03/15 11:35:02;;;;;;;3.53;1.70;;;;;;;5.23;100.00;100614.63;4944373;28;20038;-90
2023/03/15 11:37:47;;;;;;;1.50;1.40;;;;;;;5.15;100.00;100599.94;4971721;28;20094;-93
2023/03/15 11:44:33;;;;;;;2.50;2.27;;;;;;;4.86;100.00;100598.78;4947842;28;20383;-91
2023/03/15 11:47:30;;;;;;;2.92;1.70;;;;;;;5.07;100.00;100614.97;4956887;28;20054;-92
2023/03/15 11:50:25;;;;;;;3.38;2.00;;;;;;;5.27;100.00;100618.03;4986641;28;20047;-91
2023/03/15 11:53:02;;;;;;;2.97;1.85;;;;;;;5.32;100.00;100604.81;4967723;28;20050;-92
2023/03/15 11:55:33;;;;;;;2.20;1.80;;;;;;;5.50;100.00;100625.44;4960656;28;20047;-90
2023/03/15 11:58:27;;;;;;;3.45;2.08;;;;;;;5.61;100.00;100631.28;4952116;28;20082;-93
2023/03/15 12:01:00;;;;;;;2.75;2.17;;;;;;;5.61;100.00;100636.53;4954765;28;20404;-91
2023/03/15 12:04:13;;;;;;;3.85;1.67;;;;;;;5.61;100.00;100634.78;4942844;28;20069;-91
2023/03/15 12:06:42;;;;;;;3.20;2.10;;;;;;;5.32;98.11;100596.94;4958660;28;20047;-92
2023/03/15 12:09:39;;;;;;;7.55;2.10;;;;;;;5.41;99.44;100631.72;4957811;28;20089;-91
2023/03/15 12:12:25;;;;;;;3.80;1.90;;;;;;;5.37;100.00;100621.31;4977301;28;20197;-90
2023/03/15 12:15:26;;;;;;;4.07;2.30;;;;;;;5.36;99.50;100630.97;4972085;28;20043;-91
2023/03/15 12:17:58;;;;;;;3.80;1.85;;;;;;;5.40;96.13;100626.50;4980893;28;20058;-91
2023/03/15 12:20:42;;;;;;;2.50;1.80;;;;;;;5.37;93.02;100631.81;4962689;28;20142;-91
2023/03/15 12:23:30;;;;;;;2.70;2.03;;;;;;;5.38;93.43;100628.31;4964754;28;20085;-91
2023/03/15 12:26:04;;;;;;;3.50;1.98;;;;;;;5.53;96.61;100652.47;4974034;28;20038;-91
2023/03/15 12:29:06;;;;;;;3.08;2.05;;;;;;;5.48;92.76;100630.72;4982887;28;20106;-91
2023/03/15 12:32:16;;;;;;;3.85;2.55;;;;;;;5.58;93.43;100652.38;4957479;28;20123;-93
2023/03/15 12:35:07;;;;;;;5.32;2.42;;;;;;;5.62;90.93;100646.16;4980104;28;20106;-91
2023/03/15 12:37:42;;;;;;;2.78;2.22;;;;;;;5.96;90.60;100651.53;4955607;28;20115;-91
2023/03/15 12:40:21;;;;;;;3.00;2.25;;;;;;;6.35;91.59;100647.03;4990413;28;20043;-91
2023/03/15 12:42:56;;;;;;;2.80;1.98;;;;;;;6.48;87.15;100655.47;4979402;28;20077;-92
2023/03/15 12:45:44;;;;;;;2.30;2.00;;;;;;;6.53;85.02;100648.31;4962120;28;20043;-91
2023/03/15 12:48:30;;;;;;;3.40;1.80;;;;;;;6.23;71.35;100637.69;4946179;28;20050;-92
2023/03/15 12:51:10;;;;;;;2.78;1.77;;;;;;;6.06;74.91;100644.28;4963977;28;20042;-90
2023/03/15 12:54:03;;;;;;;3.45;1.77;;;;;;;5.83;74.81;100626.38;4974965;28;20069;-89
2023/03/15 12:56:43;;;;;;;4.78;2.20;;;;;;;5.82;76.14;100661.47;4980775;28;20030;-91
2023/03/15 12:59:24;;;;;;;;;;;;;;;5.72;76.39;100654.69;4993510;28;20169;-91
2023/03/15 13:01:55;;;;;;;3.00;1.58;;;;;;;5.60;77.34;100654.06;4972316;28;19918;-91
2023/03/15 13:04:38;;;;;;;2.65;1.63;;;;;;;5.55;73.86;100655.06;4976001;28;20046;-90